sensor_id;sensor_type;location;lat;lon;timestamp;temperature;humidity
16263;DHT22;8239;48.594;8.598;2024-02-21T00:02:27;1.30;99.90
16263;DHT22;8239;48.594;8.598;2024-02-21T00:04:54;1.30;99.90
16263;DHT22;8239;48.594;8.598;2024-02-21T00:07:21;1.30;99.90
16263;DHT22;8239;48.594;8.598;2024-02-21T00:09:48;1.30;99.90
16263;DHT22;8239;48.594;8.598;2024-02-21T00:12:15;1.40;99.90
16263;DHT22;8239;48.594;8.598;2024-02-21T00:14:42;1.40;99.90
16263;DHT22;8239;48.594;8.598;2024-02-21T00:17:11;1.30;99.90
16263;DHT22;8239;48.594;8.598;2024-02-21T00:19:38;1.40;99.90
16263;DHT22;8239;48.594;8.598;2024-02-21T00:22:05;1.50;99.90
16263;DHT22;8239;48.594;8.598;2024-02-21T00:24:31;1.50;99.90
16263;DHT22;8239;48.594;8.598;2024-02-21T00:26:58;1.50;99.90
16263;DHT22;8239;48.594;8.598;2024-02-21T00:29:25;1.60;99.90
16263;DHT22;8239;48.594;8.598;2024-02-21T00:31:53;1.60;99.90
16263;DHT22;8239;48.594;8.598;2024-02-21T00:34:21;1.70;99.90
16263;DHT22;8239;48.594;8.598;2024-02-21T00:36:48;1.80;99.90
16263;DHT22;8239;48.594;8.598;2024-02-21T00:39:15;1.80;99.90
16263;DHT22;8239;48.594;8.598;2024-02-21T00:41:42;1.80;99.90
16263;DHT22;8239;48.594;8.598;2024-02-21T00:44:09;1.90;99.90
16263;DHT22;8239;48.594;8.598;2024-02-21T00:46:36;1.90;99.90
16263;DHT22;8239;48.594;8.598;2024-02-21T00:49:04;1.90;99.90
16263;DHT22;8239;48.594;8.598;2024-02-21T00:51:32;1.90;99.90
16263;DHT22;8239;48.594;8.598;2024-02-21T00:53:59;1.90;99.90
16263;DHT22;8239;48.594;8.598;2024-02-21T00:56:28;1.90;99.90
16263;DHT22;8239;48.594;8.598;2024-02-21T00:58:55;1.90;99.90
16263;DHT22;8239;48.594;8.598;2024-02-21T01:01:22;1.80;99.90
16263;DHT22;8239;48.594;8.598;2024-02-21T01:03:49;1.80;99.90
16263;DHT22;8239;48.594;8.598;2024-02-21T01:06:16;1.90;99.90
16263;DHT22;8239;48.594;8.598;2024-02-21T01:08:46;1.90;99.90
16263;DHT22;8239;48.594;8.598;2024-02-21T01:11:13;1.90;99.90
16263;DHT22;8239;48.594;8.598;2024-02-21T01:13:40;1.90;99.90
16263;DHT22;8239;48.594;8.598;2024-02-21T01:16:07;2.00;99.90
16263;DHT22;8239;48.594;8.598;2024-02-21T01:18:34;2.00;99.90
16263;DHT22;8239;48.594;8.598;2024-02-21T01:21:01;2.00;99.90
16263;DHT22;8239;48.594;8.598;2024-02-21T01:23:28;2.10;99.90
16263;DHT22;8239;48.594;8.598;2024-02-21T01:25:56;2.10;99.90
16263;DHT22;8239;48.594;8.598;2024-02-21T01:28:23;2.10;99.90
16263;DHT22;8239;48.594;8.598;2024-02-21T01:30:50;2.10;99.90
16263;DHT22;8239;48.594;8.598;2024-02-21T01:33:17;2.10;99.90
16263;DHT22;8239;48.594;8.598;2024-02-21T01:35:45;2.10;99.90
16263;DHT22;8239;48.594;8.598;2024-02-21T01:38:13;2.10;99.90
16263;DHT22;8239;48.594;8.598;2024-02-21T01:40:40;2.20;99.90
16263;DHT22;8239;48.594;8.598;2024-02-21T01:43:17;2.20;99.90
16263;DHT22;8239;48.594;8.598;2024-02-21T01:45:46;2.20;99.90
16263;DHT22;8239;48.594;8.598;2024-02-21T01:48:13;2.30;99.90
16263;DHT22;8239;48.594;8.598;2024-02-21T01:50:41;2.30;99.90
16263;DHT22;8239;48.594;8.598;2024-02-21T01:53:08;2.40;99.90
16263;DHT22;8239;48.594;8.598;2024-02-21T01:55:35;2.50;99.90
16263;DHT22;8239;48.594;8.598;2024-02-21T01:58:03;2.50;99.90
16263;DHT22;8239;48.594;8.598;2024-02-21T02:00:31;2.60;99.90
16263;DHT22;8239;48.594;8.598;2024-02-21T02:02:59;2.60;99.90
16263;DHT22;8239;48.594;8.598;2024-02-21T02:05:26;2.60;99.90
16263;DHT22;8239;48.594;8.598;2024-02-21T02:07:53;2.60;99.90
16263;DHT22;8239;48.594;8.598;2024-02-21T02:10:20;2.60;99.90
16263;DHT22;8239;48.594;8.598;2024-02-21T02:12:47;2.80;99.90
16263;DHT22;8239;48.594;8.598;2024-02-21T02:15:14;2.60;99.90
16263;DHT22;8239;48.594;8.598;2024-02-21T02:17:42;2.60;99.90
16263;DHT22;8239;48.594;8.598;2024-02-21T02:20:10;2.60;99.90
16263;DHT22;8239;48.594;8.598;2024-02-21T02:22:39;2.60;99.90
16263;DHT22;8239;48.594;8.598;2024-02-21T02:25:09;2.60;99.90
16263;DHT22;8239;48.594;8.598;2024-02-21T02:27:42;2.70;99.90
16263;DHT22;8239;48.594;8.598;2024-02-21T02:30:11;2.70;99.90
16263;DHT22;8239;48.594;8.598;2024-02-21T02:32:38;2.80;99.90
16263;DHT22;8239;48.594;8.598;2024-02-21T02:35:05;2.80;99.90
16263;DHT22;8239;48.594;8.598;2024-02-21T02:37:34;2.80;99.90
16263;DHT22;8239;48.594;8.598;2024-02-21T02:40:01;2.80;99.90
16263;DHT22;8239;48.594;8.598;2024-02-21T02:42:29;2.60;99.90
16263;DHT22;8239;48.594;8.598;2024-02-21T02:44:56;2.60;99.90
16263;DHT22;8239;48.594;8.598;2024-02-21T02:47:23;2.60;99.90
16263;DHT22;8239;48.594;8.598;2024-02-21T02:49:50;2.60;99.90
16263;DHT22;8239;48.594;8.598;2024-02-21T02:52:17;2.60;99.90
16263;DHT22;8239;48.594;8.598;2024-02-21T02:54:45;2.70;99.90
16263;DHT22;8239;48.594;8.598;2024-02-21T02:57:17;2.80;99.90
16263;DHT22;8239;48.594;8.598;2024-02-21T02:59:48;2.90;99.90
16263;DHT22;8239;48.594;8.598;2024-02-21T03:02:15;2.80;99.90
16263;DHT22;8239;48.594;8.598;2024-02-21T03:04:43;2.80;99.90
16263;DHT22;8239;48.594;8.598;2024-02-21T03:07:10;2.80;99.90
16263;DHT22;8239;48.594;8.598;2024-02-21T03:09:37;2.90;99.90
16263;DHT22;8239;48.594;8.598;2024-02-21T03:12:05;2.90;99.90
16263;DHT22;8239;48.594;8.598;2024-02-21T03:14:32;2.90;99.90
16263;DHT22;8239;48.594;8.598;2024-02-21T03:17:01;2.90;99.90
16263;DHT22;8239;48.594;8.598;2024-02-21T03:19:28;2.90;99.90
16263;DHT22;8239;48.594;8.598;2024-02-21T03:21:55;2.90;99.90
16263;DHT22;8239;48.594;8.598;2024-02-21T03:24:22;2.90;99.90
16263;DHT22;8239;48.594;8.598;2024-02-21T03:26:49;2.70;99.90
16263;DHT22;8239;48.594;8.598;2024-02-21T03:29:17;2.40;99.90
16263;DHT22;8239;48.594;8.598;2024-02-21T03:31:44;2.20;99.90
16263;DHT22;8239;48.594;8.598;2024-02-21T03:34:12;2.10;99.90
16263;DHT22;8239;48.594;8.598;2024-02-21T03:36:39;2.00;99.90
16263;DHT22;8239;48.594;8.598;2024-02-21T03:39:06;1.90;99.90
16263;DHT22;8239;48.594;8.598;2024-02-21T03:41:33;1.90;99.90
16263;DHT22;8239;48.594;8.598;2024-02-21T03:44:00;1.90;99.90
16263;DHT22;8239;48.594;8.598;2024-02-21T03:46:27;1.80;99.90
16263;DHT22;8239;48.594;8.598;2024-02-21T03:48:54;1.80;99.90
16263;DHT22;8239;48.594;8.598;2024-02-21T03:51:23;1.80;99.90
16263;DHT22;8239;48.594;8.598;2024-02-21T03:53:49;1.70;99.90
16263;DHT22;8239;48.594;8.598;2024-02-21T03:56:16;1.70;99.90
16263;DHT22;8239;48.594;8.598;2024-02-21T03:58:43;1.70;99.90
16263;DHT22;8239;48.594;8.598;2024-02-21T04:01:14;1.80;99.90
16263;DHT22;8239;48.594;8.598;2024-02-21T04:03:42;1.80;99.90
16263;DHT22;8239;48.594;8.598;2024-02-21T04:06:09;1.80;99.90
16263;DHT22;8239;48.594;8.598;2024-02-21T04:08:38;1.70;99.90
16263;DHT22;8239;48.594;8.598;2024-02-21T04:11:05;1.70;99.90
16263;DHT22;8239;48.594;8.598;2024-02-21T04:13:32;1.70;99.90
16263;DHT22;8239;48.594;8.598;2024-02-21T04:15:59;1.80;99.90
16263;DHT22;8239;48.594;8.598;2024-02-21T04:18:26;1.80;99.90
16263;DHT22;8239;48.594;8.598;2024-02-21T04:20:53;1.80;99.90
16263;DHT22;8239;48.594;8.598;2024-02-21T04:23:20;1.80;99.90
16263;DHT22;8239;48.594;8.598;2024-02-21T04:25:48;1.80;99.90
16263;DHT22;8239;48.594;8.598;2024-02-21T04:28:15;1.80;99.90
16263;DHT22;8239;48.594;8.598;2024-02-21T04:30:42;1.70;99.90
16263;DHT22;8239;48.594;8.598;2024-02-21T04:33:09;1.70;99.90
16263;DHT22;8239;48.594;8.598;2024-02-21T04:35:36;1.60;99.90
16263;DHT22;8239;48.594;8.598;2024-02-21T04:38:02;1.70;99.90
16263;DHT22;8239;48.594;8.598;2024-02-21T04:40:29;1.60;99.90
16263;DHT22;8239;48.594;8.598;2024-02-21T04:42:58;1.60;99.90
16263;DHT22;8239;48.594;8.598;2024-02-21T04:45:25;1.60;99.90
16263;DHT22;8239;48.594;8.598;2024-02-21T04:47:51;1.50;99.90
16263;DHT22;8239;48.594;8.598;2024-02-21T04:50:18;1.50;99.90
16263;DHT22;8239;48.594;8.598;2024-02-21T04:52:45;1.40;99.90
16263;DHT22;8239;48.594;8.598;2024-02-21T04:55:13;1.30;99.90
16263;DHT22;8239;48.594;8.598;2024-02-21T04:57:40;1.40;99.90
16263;DHT22;8239;48.594;8.598;2024-02-21T05:00:09;1.30;99.90
16263;DHT22;8239;48.594;8.598;2024-02-21T05:02:36;1.30;99.90
16263;DHT22;8239;48.594;8.598;2024-02-21T05:05:03;1.30;99.90
16263;DHT22;8239;48.594;8.598;2024-02-21T05:07:31;1.10;99.90
16263;DHT22;8239;48.594;8.598;2024-02-21T05:09:58;1.10;99.90
16263;DHT22;8239;48.594;8.598;2024-02-21T05:12:25;1.10;99.90
16263;DHT22;8239;48.594;8.598;2024-02-21T05:14:52;1.00;99.90
16263;DHT22;8239;48.594;8.598;2024-02-21T05:17:20;1.00;99.90
16263;DHT22;8239;48.594;8.598;2024-02-21T05:19:47;0.90;99.90
16263;DHT22;8239;48.594;8.598;2024-02-21T05:22:14;1.00;99.90
16263;DHT22;8239;48.594;8.598;2024-02-21T05:24:42;1.20;99.90
16263;DHT22;8239;48.594;8.598;2024-02-21T05:27:09;1.10;99.90
16263;DHT22;8239;48.594;8.598;2024-02-21T05:29:36;1.10;99.90
16263;DHT22;8239;48.594;8.598;2024-02-21T05:32:03;1.00;99.90
16263;DHT22;8239;48.594;8.598;2024-02-21T05:34:32;1.00;99.90
16263;DHT22;8239;48.594;8.598;2024-02-21T05:36:59;0.90;99.90
16263;DHT22;8239;48.594;8.598;2024-02-21T05:39:26;0.90;99.90
16263;DHT22;8239;48.594;8.598;2024-02-21T05:41:54;0.80;99.90
16263;DHT22;8239;48.594;8.598;2024-02-21T05:44:21;0.80;99.90
16263;DHT22;8239;48.594;8.598;2024-02-21T05:46:48;0.80;99.90
16263;DHT22;8239;48.594;8.598;2024-02-21T05:49:15;0.70;99.90
16263;DHT22;8239;48.594;8.598;2024-02-21T05:51:44;0.70;99.90
16263;DHT22;8239;48.594;8.598;2024-02-21T05:54:10;0.70;99.90
16263;DHT22;8239;48.594;8.598;2024-02-21T05:56:39;0.60;99.90
16263;DHT22;8239;48.594;8.598;2024-02-21T05:59:06;0.60;99.90
16263;DHT22;8239;48.594;8.598;2024-02-21T06:01:33;0.60;99.90
16263;DHT22;8239;48.594;8.598;2024-02-21T06:04:00;0.50;99.90
16263;DHT22;8239;48.594;8.598;2024-02-21T06:06:27;0.40;99.90
16263;DHT22;8239;48.594;8.598;2024-02-21T06:08:55;0.40;99.90
16263;DHT22;8239;48.594;8.598;2024-02-21T06:11:22;0.40;99.90
16263;DHT22;8239;48.594;8.598;2024-02-21T06:13:49;0.30;99.90
16263;DHT22;8239;48.594;8.598;2024-02-21T06:16:16;0.40;99.90
16263;DHT22;8239;48.594;8.598;2024-02-21T06:18:43;0.40;99.90
16263;DHT22;8239;48.594;8.598;2024-02-21T06:21:10;0.40;99.90
16263;DHT22;8239;48.594;8.598;2024-02-21T06:23:38;0.40;99.90
16263;DHT22;8239;48.594;8.598;2024-02-21T06:26:06;0.40;99.90
16263;DHT22;8239;48.594;8.598;2024-02-21T06:28:32;0.50;99.90
16263;DHT22;8239;48.594;8.598;2024-02-21T06:30:59;0.50;99.90
16263;DHT22;8239;48.594;8.598;2024-02-21T06:33:26;0.50;99.90
16263;DHT22;8239;48.594;8.598;2024-02-21T06:35:53;0.60;99.90
16263;DHT22;8239;48.594;8.598;2024-02-21T06:38:20;0.70;99.90
16263;DHT22;8239;48.594;8.598;2024-02-21T06:40:46;1.00;99.90
16263;DHT22;8239;48.594;8.598;2024-02-21T06:43:20;1.50;99.90
16263;DHT22;8239;48.594;8.598;2024-02-21T06:45:47;2.20;99.90
16263;DHT22;8239;48.594;8.598;2024-02-21T06:48:17;2.90;99.90
16263;DHT22;8239;48.594;8.598;2024-02-21T06:50:45;3.60;99.90
16263;DHT22;8239;48.594;8.598;2024-02-21T06:53:12;4.20;99.90
16263;DHT22;8239;48.594;8.598;2024-02-21T06:55:39;4.70;99.90
16263;DHT22;8239;48.594;8.598;2024-02-21T06:58:06;4.80;99.90
16263;DHT22;8239;48.594;8.598;2024-02-21T07:00:38;5.00;99.90
16263;DHT22;8239;48.594;8.598;2024-02-21T07:03:05;5.10;99.90
16263;DHT22;8239;48.594;8.598;2024-02-21T07:05:32;5.10;99.90
16263;DHT22;8239;48.594;8.598;2024-02-21T07:07:59;5.40;99.90
16263;DHT22;8239;48.594;8.598;2024-02-21T07:10:26;5.50;99.90
16263;DHT22;8239;48.594;8.598;2024-02-21T07:12:54;5.60;99.90
16263;DHT22;8239;48.594;8.598;2024-02-21T07:15:21;5.60;99.90
16263;DHT22;8239;48.594;8.598;2024-02-21T07:17:53;5.40;99.90
16263;DHT22;8239;48.594;8.598;2024-02-21T07:20:20;5.30;99.90
16263;DHT22;8239;48.594;8.598;2024-02-21T07:22:48;5.00;99.90
16263;DHT22;8239;48.594;8.598;2024-02-21T07:25:15;4.80;99.90
16263;DHT22;8239;48.594;8.598;2024-02-21T07:27:43;4.90;99.90
16263;DHT22;8239;48.594;8.598;2024-02-21T07:30:10;4.90;99.90
16263;DHT22;8239;48.594;8.598;2024-02-21T07:32:37;5.20;99.90
16263;DHT22;8239;48.594;8.598;2024-02-21T07:35:06;5.20;99.90
16263;DHT22;8239;48.594;8.598;2024-02-21T07:37:36;5.40;99.90
16263;DHT22;8239;48.594;8.598;2024-02-21T07:40:04;5.80;99.90
16263;DHT22;8239;48.594;8.598;2024-02-21T07:42:31;6.20;99.90
16263;DHT22;8239;48.594;8.598;2024-02-21T07:44:58;6.60;99.90
16263;DHT22;8239;48.594;8.598;2024-02-21T07:47:25;7.00;99.90
16263;DHT22;8239;48.594;8.598;2024-02-21T07:49:52;7.50;99.20
16263;DHT22;8239;48.594;8.598;2024-02-21T07:52:20;7.80;97.40
16263;DHT22;8239;48.594;8.598;2024-02-21T07:54:47;8.10;96.40
16263;DHT22;8239;48.594;8.598;2024-02-21T07:57:14;8.30;95.30
16263;DHT22;8239;48.594;8.598;2024-02-21T07:59:41;8.50;94.70
16263;DHT22;8239;48.594;8.598;2024-02-21T08:02:08;8.60;94.20
16263;DHT22;8239;48.594;8.598;2024-02-21T08:04:35;8.70;93.60
16263;DHT22;8239;48.594;8.598;2024-02-21T08:07:03;8.90;93.10
16263;DHT22;8239;48.594;8.598;2024-02-21T08:09:32;9.10;93.50
16263;DHT22;8239;48.594;8.598;2024-02-21T08:11:59;9.30;92.70
16263;DHT22;8239;48.594;8.598;2024-02-21T08:14:26;9.50;92.20
16263;DHT22;8239;48.594;8.598;2024-02-21T08:16:53;9.40;91.60
16263;DHT22;8239;48.594;8.598;2024-02-21T08:19:21;9.50;91.10
16263;DHT22;8239;48.594;8.598;2024-02-21T08:21:47;9.40;90.60
16263;DHT22;8239;48.594;8.598;2024-02-21T08:24:15;9.70;90.60
16263;DHT22;8239;48.594;8.598;2024-02-21T08:26:44;10.10;88.70
16263;DHT22;8239;48.594;8.598;2024-02-21T08:29:11;10.60;85.70
16263;DHT22;8239;48.594;8.598;2024-02-21T08:31:38;10.90;83.40
16263;DHT22;8239;48.594;8.598;2024-02-21T08:34:05;10.80;81.40
16263;DHT22;8239;48.594;8.598;2024-02-21T08:36:33;10.60;83.90
16263;DHT22;8239;48.594;8.598;2024-02-21T08:39:01;10.60;81.90
16263;DHT22;8239;48.594;8.598;2024-02-21T08:41:31;10.60;79.90
16263;DHT22;8239;48.594;8.598;2024-02-21T08:43:59;10.60;79.20
16263;DHT22;8239;48.594;8.598;2024-02-21T08:46:26;10.40;79.00
16263;DHT22;8239;48.594;8.598;2024-02-21T08:48:53;10.30;80.20
16263;DHT22;8239;48.594;8.598;2024-02-21T08:51:20;10.10;80.20
16263;DHT22;8239;48.594;8.598;2024-02-21T08:53:48;9.70;84.50
16263;DHT22;8239;48.594;8.598;2024-02-21T08:56:15;10.00;82.80
16263;DHT22;8239;48.594;8.598;2024-02-21T08:58:43;10.10;83.60
16263;DHT22;8239;48.594;8.598;2024-02-21T09:01:12;10.20;82.70
16263;DHT22;8239;48.594;8.598;2024-02-21T09:03:39;10.50;84.30
16263;DHT22;8239;48.594;8.598;2024-02-21T09:06:07;10.80;81.40
16263;DHT22;8239;48.594;8.598;2024-02-21T09:08:35;11.00;81.00
16263;DHT22;8239;48.594;8.598;2024-02-21T09:11:02;11.60;78.80
16263;DHT22;8239;48.594;8.598;2024-02-21T09:13:29;12.20;77.10
16263;DHT22;8239;48.594;8.598;2024-02-21T09:15:56;12.90;74.20
16263;DHT22;8239;48.594;8.598;2024-02-21T09:18:25;13.50;71.70
16263;DHT22;8239;48.594;8.598;2024-02-21T09:20:53;13.80;69.60
16263;DHT22;8239;48.594;8.598;2024-02-21T09:23:20;14.00;68.90
16263;DHT22;8239;48.594;8.598;2024-02-21T09:25:47;14.60;68.00
16263;DHT22;8239;48.594;8.598;2024-02-21T09:28:16;14.90;65.40
16263;DHT22;8239;48.594;8.598;2024-02-21T09:30:43;14.90;64.00
16263;DHT22;8239;48.594;8.598;2024-02-21T09:33:11;15.10;64.10
16263;DHT22;8239;48.594;8.598;2024-02-21T09:35:41;15.10;62.40
16263;DHT22;8239;48.594;8.598;2024-02-21T09:38:08;15.40;61.90
16263;DHT22;8239;48.594;8.598;2024-02-21T09:40:35;15.80;60.00
16263;DHT22;8239;48.594;8.598;2024-02-21T09:43:04;15.60;59.30
16263;DHT22;8239;48.594;8.598;2024-02-21T09:45:33;15.70;60.00
16263;DHT22;8239;48.594;8.598;2024-02-21T09:48:19;15.50;59.80
16263;DHT22;8239;48.594;8.598;2024-02-21T09:50:50;16.10;61.20
16263;DHT22;8239;48.594;8.598;2024-02-21T09:53:18;16.70;58.20
16263;DHT22;8239;48.594;8.598;2024-02-21T09:55:46;17.50;57.00
16263;DHT22;8239;48.594;8.598;2024-02-21T09:58:15;18.20;55.40
16263;DHT22;8239;48.594;8.598;2024-02-21T10:00:42;18.20;53.30
16263;DHT22;8239;48.594;8.598;2024-02-21T10:03:10;18.10;53.60
16263;DHT22;8239;48.594;8.598;2024-02-21T10:05:37;17.80;52.40
16263;DHT22;8239;48.594;8.598;2024-02-21T10:08:06;16.70;54.90
16263;DHT22;8239;48.594;8.598;2024-02-21T10:10:42;16.80;55.50
16263;DHT22;8239;48.594;8.598;2024-02-21T10:13:10;17.30;54.50
16263;DHT22;8239;48.594;8.598;2024-02-21T10:15:37;17.60;53.20
16263;DHT22;8239;48.594;8.598;2024-02-21T10:18:05;17.80;53.40
16263;DHT22;8239;48.594;8.598;2024-02-21T10:20:33;17.90;53.80
16263;DHT22;8239;48.594;8.598;2024-02-21T10:23:01;18.00;52.50
16263;DHT22;8239;48.594;8.598;2024-02-21T10:25:30;18.00;52.00
16263;DHT22;8239;48.594;8.598;2024-02-21T10:27:57;17.70;50.60
16263;DHT22;8239;48.594;8.598;2024-02-21T10:30:24;17.40;51.00
16263;DHT22;8239;48.594;8.598;2024-02-21T10:32:52;17.20;52.00
16263;DHT22;8239;48.594;8.598;2024-02-21T10:35:26;16.50;52.80
16263;DHT22;8239;48.594;8.598;2024-02-21T10:37:54;15.50;53.50
16263;DHT22;8239;48.594;8.598;2024-02-21T10:40:25;15.50;54.90
16263;DHT22;8239;48.594;8.598;2024-02-21T10:42:56;15.70;53.70
16263;DHT22;8239;48.594;8.598;2024-02-21T10:45:29;16.00;54.20
16263;DHT22;8239;48.594;8.598;2024-02-21T10:48:06;16.20;53.20
16263;DHT22;8239;48.594;8.598;2024-02-21T10:50:47;16.20;52.70
16263;DHT22;8239;48.594;8.598;2024-02-21T10:53:23;16.30;50.40
16263;DHT22;8239;48.594;8.598;2024-02-21T10:55:58;15.80;50.00
16263;DHT22;8239;48.594;8.598;2024-02-21T10:58:28;16.00;52.10
16263;DHT22;8239;48.594;8.598;2024-02-21T11:00:56;16.20;52.10
16263;DHT22;8239;48.594;8.598;2024-02-21T11:03:23;16.40;51.90
16263;DHT22;8239;48.594;8.598;2024-02-21T11:05:50;16.60;50.50
16263;DHT22;8239;48.594;8.598;2024-02-21T11:08:18;16.20;50.20
16263;DHT22;8239;48.594;8.598;2024-02-21T11:10:46;15.80;51.00
16263;DHT22;8239;48.594;8.598;2024-02-21T11:13:13;15.30;52.80
16263;DHT22;8239;48.594;8.598;2024-02-21T11:15:41;15.00;52.30
16263;DHT22;8239;48.594;8.598;2024-02-21T11:18:08;15.20;52.40
16263;DHT22;8239;48.594;8.598;2024-02-21T11:20:36;15.70;52.50
16263;DHT22;8239;48.594;8.598;2024-02-21T11:23:04;16.50;51.90
16263;DHT22;8239;48.594;8.598;2024-02-21T11:25:31;17.30;50.60
16263;DHT22;8239;48.594;8.598;2024-02-21T11:28:00;18.00;49.00
16263;DHT22;8239;48.594;8.598;2024-02-21T11:30:29;18.30;46.60
16263;DHT22;8239;48.594;8.598;2024-02-21T11:33:06;18.60;46.00
16263;DHT22;8239;48.594;8.598;2024-02-21T11:35:34;18.70;43.60
16263;DHT22;8239;48.594;8.598;2024-02-21T11:38:08;18.70;44.00
16263;DHT22;8239;48.594;8.598;2024-02-21T11:40:39;18.00;44.20
16263;DHT22;8239;48.594;8.598;2024-02-21T11:43:07;17.80;43.90
16263;DHT22;8239;48.594;8.598;2024-02-21T11:45:34;17.80;42.70
16263;DHT22;8239;48.594;8.598;2024-02-21T11:48:01;17.90;44.20
16263;DHT22;8239;48.594;8.598;2024-02-21T11:50:42;17.50;43.00
16263;DHT22;8239;48.594;8.598;2024-02-21T11:53:26;17.10;42.60
16263;DHT22;8239;48.594;8.598;2024-02-21T11:55:57;16.60;42.30
16263;DHT22;8239;48.594;8.598;2024-02-21T11:58:24;16.40;42.50
16263;DHT22;8239;48.594;8.598;2024-02-21T12:00:52;16.50;44.20
16263;DHT22;8239;48.594;8.598;2024-02-21T12:03:19;16.50;43.40
16263;DHT22;8239;48.594;8.598;2024-02-21T12:05:48;15.90;43.10
16263;DHT22;8239;48.594;8.598;2024-02-21T12:08:15;15.50;44.00
16263;DHT22;8239;48.594;8.598;2024-02-21T12:10:44;15.30;43.90
16263;DHT22;8239;48.594;8.598;2024-02-21T12:13:16;15.00;44.40
16263;DHT22;8239;48.594;8.598;2024-02-21T12:15:47;14.90;46.90
16263;DHT22;8239;48.594;8.598;2024-02-21T12:18:15;15.00;46.90
16263;DHT22;8239;48.594;8.598;2024-02-21T12:20:42;14.90;45.50
16263;DHT22;8239;48.594;8.598;2024-02-21T12:23:13;15.00;44.50
16263;DHT22;8239;48.594;8.598;2024-02-21T12:25:40;15.00;44.80
16263;DHT22;8239;48.594;8.598;2024-02-21T12:28:07;15.10;44.70
16263;DHT22;8239;48.594;8.598;2024-02-21T12:30:34;15.10;44.60
16263;DHT22;8239;48.594;8.598;2024-02-21T12:33:05;14.90;43.70
16263;DHT22;8239;48.594;8.598;2024-02-21T12:35:32;14.70;41.90
16263;DHT22;8239;48.594;8.598;2024-02-21T12:37:59;14.50;41.70
16263;DHT22;8239;48.594;8.598;2024-02-21T12:40:28;14.40;42.60
16263;DHT22;8239;48.594;8.598;2024-02-21T12:42:59;14.20;42.00
16263;DHT22;8239;48.594;8.598;2024-02-21T12:45:30;14.20;43.20
16263;DHT22;8239;48.594;8.598;2024-02-21T12:47:57;14.20;42.60
16263;DHT22;8239;48.594;8.598;2024-02-21T12:50:24;14.30;43.30
16263;DHT22;8239;48.594;8.598;2024-02-21T12:52:51;14.10;42.30
16263;DHT22;8239;48.594;8.598;2024-02-21T12:55:18;14.00;42.70
16263;DHT22;8239;48.594;8.598;2024-02-21T12:57:47;13.90;42.90
16263;DHT22;8239;48.594;8.598;2024-02-21T13:00:15;13.80;44.70
16263;DHT22;8239;48.594;8.598;2024-02-21T13:02:42;13.80;45.00
16263;DHT22;8239;48.594;8.598;2024-02-21T13:05:09;13.60;43.40
16263;DHT22;8239;48.594;8.598;2024-02-21T13:07:37;13.50;43.30
16263;DHT22;8239;48.594;8.598;2024-02-21T13:10:06;13.50;44.10
16263;DHT22;8239;48.594;8.598;2024-02-21T13:12:33;13.50;44.10
16263;DHT22;8239;48.594;8.598;2024-02-21T13:15:02;13.60;44.20
16263;DHT22;8239;48.594;8.598;2024-02-21T13:17:30;13.60;43.10
16263;DHT22;8239;48.594;8.598;2024-02-21T13:19:57;13.50;43.20
16263;DHT22;8239;48.594;8.598;2024-02-21T13:22:24;13.40;42.90
16263;DHT22;8239;48.594;8.598;2024-02-21T13:24:52;13.30;43.60
16263;DHT22;8239;48.594;8.598;2024-02-21T13:27:19;13.40;44.30
16263;DHT22;8239;48.594;8.598;2024-02-21T13:29:46;13.50;43.90
16263;DHT22;8239;48.594;8.598;2024-02-21T13:32:14;13.60;43.60
16263;DHT22;8239;48.594;8.598;2024-02-21T13:34:42;13.60;43.60
16263;DHT22;8239;48.594;8.598;2024-02-21T13:37:09;13.50;42.80
16263;DHT22;8239;48.594;8.598;2024-02-21T13:39:36;13.30;42.50
16263;DHT22;8239;48.594;8.598;2024-02-21T13:58:12;12.20;44.50
16263;DHT22;8239;48.594;8.598;2024-02-21T14:00:40;12.30;44.90
16263;DHT22;8239;48.594;8.598;2024-02-21T14:03:07;12.30;45.70
16263;DHT22;8239;48.594;8.598;2024-02-21T14:05:34;12.30;45.20
16263;DHT22;8239;48.594;8.598;2024-02-21T14:08:00;12.20;45.10
16263;DHT22;8239;48.594;8.598;2024-02-21T14:10:27;12.30;45.50
16263;DHT22;8239;48.594;8.598;2024-02-21T14:12:54;12.30;45.40
16263;DHT22;8239;48.594;8.598;2024-02-21T14:15:24;12.30;46.50
16263;DHT22;8239;48.594;8.598;2024-02-21T14:17:51;12.30;46.50
16263;DHT22;8239;48.594;8.598;2024-02-21T14:20:18;12.20;46.00
16263;DHT22;8239;48.594;8.598;2024-02-21T14:22:45;12.10;46.90
16263;DHT22;8239;48.594;8.598;2024-02-21T14:25:12;11.90;46.70
16263;DHT22;8239;48.594;8.598;2024-02-21T14:27:41;12.00;47.00
16263;DHT22;8239;48.594;8.598;2024-02-21T14:30:09;11.90;46.00
16263;DHT22;8239;48.594;8.598;2024-02-21T14:32:38;12.00;45.70
16263;DHT22;8239;48.594;8.598;2024-02-21T14:35:05;12.00;46.40
16263;DHT22;8239;48.594;8.598;2024-02-21T14:37:33;12.00;46.20
16263;DHT22;8239;48.594;8.598;2024-02-21T14:40:00;12.00;46.10
16263;DHT22;8239;48.594;8.598;2024-02-21T14:42:28;12.00;46.80
16263;DHT22;8239;48.594;8.598;2024-02-21T14:44:55;12.10;45.60
16263;DHT22;8239;48.594;8.598;2024-02-21T14:47:29;12.10;46.00
16263;DHT22;8239;48.594;8.598;2024-02-21T14:49:58;12.10;45.20
16263;DHT22;8239;48.594;8.598;2024-02-21T14:52:25;12.10;45.00
16263;DHT22;8239;48.594;8.598;2024-02-21T14:54:53;12.20;45.20
16263;DHT22;8239;48.594;8.598;2024-02-21T14:57:20;12.20;46.30
16263;DHT22;8239;48.594;8.598;2024-02-21T14:59:47;12.20;45.40
16263;DHT22;8239;48.594;8.598;2024-02-21T15:02:15;12.10;44.90
16263;DHT22;8239;48.594;8.598;2024-02-21T15:04:42;12.00;46.10
16263;DHT22;8239;48.594;8.598;2024-02-21T15:07:11;11.90;44.70
16263;DHT22;8239;48.594;8.598;2024-02-21T15:09:38;11.90;45.10
16263;DHT22;8239;48.594;8.598;2024-02-21T15:12:06;11.80;43.30
16263;DHT22;8239;48.594;8.598;2024-02-21T15:14:33;11.70;43.70
16263;DHT22;8239;48.594;8.598;2024-02-21T15:17:01;11.50;44.00
16263;DHT22;8239;48.594;8.598;2024-02-21T15:19:28;11.40;43.90
16263;DHT22;8239;48.594;8.598;2024-02-21T15:21:55;11.40;44.10
16263;DHT22;8239;48.594;8.598;2024-02-21T15:24:23;11.40;45.90
16263;DHT22;8239;48.594;8.598;2024-02-21T15:26:51;11.30;44.50
16263;DHT22;8239;48.594;8.598;2024-02-21T15:29:18;11.20;44.70
16263;DHT22;8239;48.594;8.598;2024-02-21T15:31:45;11.10;44.40
16263;DHT22;8239;48.594;8.598;2024-02-21T15:34:13;11.00;44.40
16263;DHT22;8239;48.594;8.598;2024-02-21T15:36:41;10.90;45.60
16263;DHT22;8239;48.594;8.598;2024-02-21T15:39:08;10.80;45.00
16263;DHT22;8239;48.594;8.598;2024-02-21T15:41:37;10.80;45.60
16263;DHT22;8239;48.594;8.598;2024-02-21T15:44:05;10.60;45.40
16263;DHT22;8239;48.594;8.598;2024-02-21T15:46:32;10.60;46.40
16263;DHT22;8239;48.594;8.598;2024-02-21T15:49:02;10.50;46.80
16263;DHT22;8239;48.594;8.598;2024-02-21T15:51:29;10.30;47.00
16263;DHT22;8239;48.594;8.598;2024-02-21T15:53:58;10.20;46.70
16263;DHT22;8239;48.594;8.598;2024-02-21T15:56:25;10.20;47.50
16263;DHT22;8239;48.594;8.598;2024-02-21T15:58:54;10.10;47.50
16263;DHT22;8239;48.594;8.598;2024-02-21T16:01:22;10.00;47.10
16263;DHT22;8239;48.594;8.598;2024-02-21T16:03:49;10.00;47.20
16263;DHT22;8239;48.594;8.598;2024-02-21T16:06:16;9.90;48.70
16263;DHT22;8239;48.594;8.598;2024-02-21T16:08:43;9.90;49.60
16263;DHT22;8239;48.594;8.598;2024-02-21T16:11:13;9.80;49.10
16263;DHT22;8239;48.594;8.598;2024-02-21T16:13:42;9.70;49.90
16263;DHT22;8239;48.594;8.598;2024-02-21T16:16:12;9.70;50.30